createdAt,value
2023-07-17T00:01:17.483Z,19.70
2023-07-17T00:03:51.608Z,19.80
2023-07-17T00:06:23.726Z,19.80
2023-07-17T00:08:55.807Z,19.70
2023-07-17T00:11:27.872Z,19.70
2023-07-17T00:14:00.320Z,19.80
2023-07-17T00:16:32.962Z,19.80
2023-07-17T00:19:05.615Z,19.80
2023-07-17T00:21:38.121Z,19.80
2023-07-17T00:24:10.223Z,19.80
2023-07-17T00:26:42.420Z,19.90
2023-07-17T00:29:24.701Z,19.90
2023-07-17T00:31:58.948Z,19.90
2023-07-17T00:34:31.044Z,20.00
2023-07-17T00:37:03.369Z,20.00
2023-07-17T00:39:36.423Z,19.90
2023-07-17T00:42:09.323Z,19.90
2023-07-17T00:44:41.579Z,20.00
2023-07-17T00:47:14.041Z,19.90
2023-07-17T00:49:49.123Z,19.90
2023-07-17T00:52:21.252Z,20.00
2023-07-17T00:54:54.049Z,20.00
2023-07-17T00:57:27.621Z,20.00
2023-07-17T01:00:00.381Z,20.00
2023-07-17T01:02:34.856Z,20.00
2023-07-17T01:05:10.006Z,20.00
2023-07-17T01:07:42.058Z,20.00
2023-07-17T01:10:14.212Z,20.00
2023-07-17T01:12:46.331Z,20.00
2023-07-17T01:15:18.353Z,20.10
2023-07-17T01:17:50.631Z,20.10
2023-07-17T01:20:22.799Z,20.10
2023-07-17T01:23:00.632Z,20.10
2023-07-17T01:25:33.898Z,20.10
2023-07-17T01:28:06.019Z,20.20
2023-07-17T01:30:38.177Z,20.20
2023-07-17T01:33:10.579Z,20.20
2023-07-17T01:35:43.136Z,20.20
2023-07-17T01:38:16.248Z,20.20
2023-07-17T01:40:48.352Z,20.20
2023-07-17T01:43:20.345Z,20.20
2023-07-17T01:45:53.143Z,20.20
2023-07-17T01:48:25.231Z,20.10
2023-07-17T01:50:57.306Z,20.20
2023-07-17T01:53:29.396Z,20.20
2023-07-17T01:56:01.749Z,20.20
2023-07-17T01:58:34.218Z,20.10
2023-07-17T02:01:06.302Z,20.20
2023-07-17T02:03:39.564Z,20.10
2023-07-17T02:06:11.733Z,20.10
2023-07-17T02:08:43.797Z,20.20
2023-07-17T02:11:16.088Z,20.10
2023-07-17T02:13:48.325Z,20.10
2023-07-17T02:16:20.645Z,20.10
2023-07-17T02:18:52.829Z,20.10
2023-07-17T02:21:24.837Z,20.10
2023-07-17T02:23:58.689Z,20.10
2023-07-17T02:26:31.772Z,20.10
2023-07-17T02:29:04.220Z,20.10
2023-07-17T02:31:36.239Z,20.00
2023-07-17T02:34:08.492Z,20.00
2023-07-17T02:36:40.620Z,20.00
2023-07-17T02:39:13.863Z,20.00
2023-07-17T02:41:46.984Z,20.20
2023-07-17T02:44:19.414Z,19.90
2023-07-17T02:46:52.454Z,19.90
2023-07-17T02:49:24.560Z,19.90
2023-07-17T02:51:56.752Z,19.90
2023-07-17T02:54:28.789Z,19.80
2023-07-17T02:57:00.999Z,19.80
2023-07-17T02:59:33.496Z,19.70
2023-07-17T03:02:06.724Z,19.70
2023-07-17T03:04:38.696Z,19.60
2023-07-17T03:07:10.745Z,19.60
2023-07-17T03:09:42.792Z,19.60
2023-07-17T03:12:14.931Z,19.60
2023-07-17T03:14:46.952Z,19.50
2023-07-17T03:17:18.977Z,19.50
2023-07-17T03:19:52.442Z,19.50
2023-07-17T03:22:24.483Z,19.50
2023-07-17T03:24:57.302Z,19.50
2023-07-17T03:27:29.340Z,19.50
2023-07-17T03:30:01.356Z,19.40
2023-07-17T03:32:37.251Z,19.40
2023-07-17T03:35:10.840Z,19.40
2023-07-17T03:37:43.818Z,19.40
2023-07-17T03:40:15.855Z,19.40
2023-07-17T03:42:47.908Z,19.40
2023-07-17T03:45:19.999Z,19.40
2023-07-17T03:47:52.467Z,19.40
2023-07-17T03:50:24.454Z,19.40
2023-07-17T03:52:56.502Z,19.40
2023-07-17T03:55:28.521Z,19.40
2023-07-17T03:58:00.629Z,19.30
2023-07-17T04:00:32.725Z,19.30
2023-07-17T04:03:05.052Z,19.30
2023-07-17T04:05:37.234Z,19.30
2023-07-17T04:08:09.231Z,19.20
2023-07-17T04:10:41.370Z,19.20
2023-07-17T04:13:14.635Z,19.20
2023-07-17T04:15:46.819Z,19.10
2023-07-17T04:18:20.478Z,19.10
2023-07-17T04:20:52.463Z,19.10
2023-07-17T04:23:24.671Z,19.00
2023-07-17T04:25:56.823Z,19.00
2023-07-17T04:28:28.980Z,19.00
2023-07-17T04:31:04.636Z,19.10
2023-07-17T04:33:36.701Z,19.10
2023-07-17T04:36:09.186Z,19.10
2023-07-17T04:38:41.385Z,19.10
2023-07-17T04:41:13.577Z,19.10
2023-07-17T04:43:45.606Z,19.20
2023-07-17T04:46:17.791Z,19.20
2023-07-17T04:48:50.150Z,19.20
2023-07-17T04:51:22.536Z,19.20
2023-07-17T04:53:54.953Z,19.30
2023-07-17T04:56:27.076Z,19.30
2023-07-17T04:58:59.167Z,19.40
2023-07-17T05:01:31.329Z,19.40
2023-07-17T05:04:03.812Z,19.50
2023-07-17T05:06:36.008Z,19.50
2023-07-17T05:09:08.195Z,19.50
2023-07-17T05:11:43.110Z,19.60
2023-07-17T05:14:16.226Z,19.60
2023-07-17T05:16:48.441Z,19.70
2023-07-17T05:19:20.878Z,19.70
2023-07-17T05:21:53.046Z,19.80
2023-07-17T05:24:25.493Z,19.90
2023-07-17T05:26:57.614Z,20.00
2023-07-17T05:29:29.849Z,20.10
2023-07-17T05:32:02.075Z,20.20
2023-07-17T05:34:35.929Z,20.30
2023-07-17T05:37:08.100Z,20.50
2023-07-17T05:39:40.317Z,20.60
2023-07-17T05:42:12.501Z,20.70
2023-07-17T05:44:44.740Z,20.80
2023-07-17T05:47:16.833Z,20.90
2023-07-17T05:49:49.039Z,20.90
2023-07-17T05:52:21.131Z,21.00
2023-07-17T05:54:53.257Z,21.00
2023-07-17T05:57:25.534Z,21.20
2023-07-17T05:59:57.642Z,21.30
2023-07-17T06:02:29.724Z,21.50
2023-07-17T06:05:02.079Z,21.60
2023-07-17T06:07:35.178Z,21.80
2023-07-17T06:10:08.795Z,22.00
2023-07-17T06:12:41.769Z,22.20
2023-07-17T06:15:15.217Z,22.50
2023-07-17T06:17:48.290Z,22.80
2023-07-17T06:20:21.690Z,23.00
2023-07-17T06:22:54.007Z,23.10
2023-07-17T06:25:26.164Z,23.50
2023-07-17T06:27:58.315Z,24.40
2023-07-17T06:30:34.649Z,25.00
2023-07-17T06:33:07.449Z,25.70
2023-07-17T06:35:39.560Z,26.40
2023-07-17T06:38:11.638Z,26.80
2023-07-17T06:40:43.696Z,27.20
2023-07-17T06:43:15.848Z,27.50
2023-07-17T06:45:49.773Z,28.50
2023-07-17T06:48:25.653Z,28.70
2023-07-17T06:51:00.025Z,28.90
2023-07-17T06:53:32.721Z,29.90
2023-07-17T06:56:04.982Z,30.30
2023-07-17T06:58:37.340Z,29.90
2023-07-17T07:01:10.258Z,30.40
2023-07-17T07:03:47.010Z,31.20
2023-07-17T07:06:19.446Z,31.30
2023-07-17T07:08:56.109Z,31.80
2023-07-17T07:11:29.608Z,31.80
2023-07-17T07:14:03.047Z,32.60
2023-07-17T07:16:36.164Z,32.90
2023-07-17T07:19:11.141Z,33.60
2023-07-17T07:21:43.562Z,34.00
2023-07-17T07:24:15.830Z,33.90
2023-07-17T07:26:47.927Z,34.60
2023-07-17T07:29:20.095Z,34.70
2023-07-17T07:31:52.658Z,34.80
2023-07-17T07:34:25.029Z,35.10
2023-07-17T07:36:57.139Z,34.80
2023-07-17T07:39:29.164Z,35.10
2023-07-17T07:42:01.250Z,35.30
2023-07-17T07:44:33.340Z,36.00
2023-07-17T07:47:06.424Z,36.10
2023-07-17T07:49:38.665Z,35.80
2023-07-17T07:52:10.806Z,35.60
2023-07-17T07:54:44.915Z,35.30
2023-07-17T07:57:17.113Z,35.50
2023-07-17T07:59:50.680Z,35.60
2023-07-17T08:02:25.423Z,35.50
2023-07-17T08:04:58.070Z,35.50
2023-07-17T08:07:30.274Z,35.20
2023-07-17T08:10:03.850Z,35.50
2023-07-17T08:12:36.307Z,35.70
2023-07-17T08:15:09.167Z,34.70
2023-07-17T08:17:42.122Z,35.00
2023-07-17T08:20:14.310Z,35.30
2023-07-17T08:22:47.984Z,35.10
2023-07-17T08:25:24.218Z,34.90
2023-07-17T08:27:56.301Z,35.10
2023-07-17T08:30:28.630Z,34.70
2023-07-17T08:33:00.796Z,34.50
2023-07-17T08:35:32.916Z,34.10
2023-07-17T08:38:05.310Z,33.90
2023-07-17T08:40:40.753Z,33.50
2023-07-17T08:43:13.160Z,33.00
2023-07-17T08:45:47.101Z,32.40
2023-07-17T08:48:20.500Z,31.90
2023-07-17T08:50:53.224Z,31.70
2023-07-17T08:53:25.983Z,31.60
2023-07-17T08:55:58.723Z,31.40
2023-07-17T08:58:31.806Z,31.10
2023-07-17T09:01:04.187Z,30.90
2023-07-17T09:03:37.957Z,30.90
2023-07-17T09:06:14.662Z,31.00
2023-07-17T09:08:46.830Z,30.70
2023-07-17T09:11:20.032Z,30.00
2023-07-17T09:13:52.621Z,29.10
2023-07-17T09:16:26.021Z,28.50
2023-07-17T09:18:58.241Z,28.30
2023-07-17T09:21:32.250Z,28.30
2023-07-17T09:24:04.624Z,28.50
2023-07-17T09:26:36.973Z,28.60
2023-07-17T09:29:09.108Z,28.70
2023-07-17T09:31:41.377Z,28.40
2023-07-17T09:34:14.603Z,28.30
2023-07-17T09:36:52.228Z,28.00
2023-07-17T09:39:26.565Z,27.80
2023-07-17T09:41:59.420Z,27.80
2023-07-17T09:44:33.130Z,27.70
2023-07-17T09:47:06.127Z,27.80
2023-07-17T09:49:40.089Z,27.90
2023-07-17T09:52:13.909Z,27.80
2023-07-17T09:54:47.157Z,27.70
2023-07-17T09:57:38.049Z,27.60
2023-07-17T10:00:14.565Z,27.50
2023-07-17T10:03:05.426Z,27.30
2023-07-17T10:05:40.635Z,27.40
2023-07-17T10:08:16.754Z,27.20
2023-07-17T10:10:49.564Z,27.20
2023-07-17T10:13:22.215Z,27.10
2023-07-17T10:15:54.672Z,27.10
2023-07-17T10:18:26.913Z,27.10
2023-07-17T10:21:05.365Z,27.10
2023-07-17T10:23:37.504Z,27.00
2023-07-17T10:26:18.051Z,26.90
2023-07-17T10:28:54.979Z,26.90
2023-07-17T10:31:27.577Z,26.90
2023-07-17T10:34:05.422Z,26.90
2023-07-17T10:36:43.256Z,27.00
2023-07-17T10:39:20.533Z,26.80
2023-07-17T10:41:55.550Z,26.70
2023-07-17T10:44:36.421Z,26.70
2023-07-17T10:47:08.836Z,26.80
2023-07-17T10:49:43.844Z,26.80
2023-07-17T10:52:18.192Z,26.90
2023-07-17T10:54:50.306Z,27.00
2023-07-17T10:57:22.641Z,27.10
2023-07-17T10:59:56.725Z,27.20
2023-07-17T11:02:29.712Z,27.40
2023-07-17T11:05:04.796Z,27.70
2023-07-17T11:07:37.226Z,27.80
2023-07-17T11:10:13.343Z,27.90
2023-07-17T11:12:46.403Z,28.00
2023-07-17T11:15:19.795Z,28.10
2023-07-17T11:17:53.371Z,28.30
2023-07-17T11:20:25.767Z,28.40
2023-07-17T11:22:59.584Z,28.50
2023-07-17T11:25:35.274Z,28.60
2023-07-17T11:28:07.581Z,28.70
2023-07-17T11:30:40.057Z,28.80
2023-07-17T11:33:12.521Z,28.90
2023-07-17T11:35:53.871Z,29.20
2023-07-17T11:38:26.122Z,29.40
2023-07-17T11:41:03.187Z,29.50
2023-07-17T11:43:39.015Z,29.50
2023-07-17T11:46:12.482Z,29.30
2023-07-17T11:48:45.023Z,29.30
2023-07-17T11:51:18.392Z,29.40
2023-07-17T11:53:56.555Z,29.50
2023-07-17T11:56:42.280Z,29.40
2023-07-17T11:59:19.611Z,29.30
2023-07-17T12:01:53.682Z,29.40
2023-07-17T12:04:30.108Z,29.80
2023-07-17T12:07:06.637Z,30.00
2023-07-17T12:09:50.990Z,30.30
2023-07-17T12:12:23.185Z,30.50
2023-07-17T12:14:55.254Z,30.50
2023-07-17T12:17:27.494Z,30.70
2023-07-17T12:19:59.745Z,30.80
2023-07-17T12:22:32.140Z,31.00
2023-07-17T12:25:04.631Z,31.20
2023-07-17T12:27:38.024Z,31.40
2023-07-17T12:30:11.268Z,31.50
2023-07-17T12:32:45.523Z,31.60
2023-07-17T12:35:18.120Z,31.60
2023-07-17T12:37:50.313Z,31.50
2023-07-17T12:40:22.432Z,31.60
2023-07-17T12:42:54.631Z,31.70
2023-07-17T12:45:26.832Z,31.80
2023-07-17T12:47:59.540Z,31.60
2023-07-17T12:50:31.789Z,31.40
2023-07-17T12:53:05.061Z,31.40
2023-07-17T12:55:39.528Z,31.50
2023-07-17T12:58:11.764Z,31.50
2023-07-17T13:00:44.574Z,31.60
2023-07-17T13:03:16.976Z,31.30
2023-07-17T13:05:50.328Z,31.10
2023-07-17T13:08:23.094Z,30.90
2023-07-17T13:10:55.179Z,30.80
2023-07-17T13:13:27.437Z,30.90
2023-07-17T13:15:59.651Z,30.80
2023-07-17T13:18:31.917Z,31.00
2023-07-17T13:21:05.693Z,31.00
2023-07-17T13:23:38.045Z,31.00
2023-07-17T13:26:10.478Z,31.00
2023-07-17T13:28:42.849Z,30.90
2023-07-17T13:31:15.065Z,30.80
2023-07-17T13:33:47.315Z,30.80
2023-07-17T13:36:19.460Z,30.80
2023-07-17T13:38:51.698Z,31.00
2023-07-17T13:41:45.567Z,31.10
2023-07-17T13:44:22.421Z,31.00
2023-07-17T13:46:54.670Z,30.80
2023-07-17T13:49:27.969Z,30.50
2023-07-17T13:52:00.133Z,30.50
2023-07-17T13:54:32.286Z,30.10
2023-07-17T13:57:04.898Z,29.80
2023-07-17T13:59:37.314Z,29.50
2023-07-17T14:02:09.403Z,29.20
2023-07-17T14:04:41.612Z,28.90
2023-07-17T14:07:13.666Z,28.70
2023-07-17T14:09:45.735Z,28.50
2023-07-17T14:12:17.880Z,28.30
2023-07-17T14:14:50.026Z,28.10
2023-07-17T14:17:23.054Z,28.00
2023-07-17T14:19:55.180Z,27.90
2023-07-17T14:22:27.663Z,27.80
2023-07-17T14:25:00.236Z,27.70
2023-07-17T14:27:32.557Z,27.70
2023-07-17T14:30:05.135Z,27.90
2023-07-17T14:32:37.789Z,28.20
2023-07-17T14:35:09.973Z,28.30
2023-07-17T14:37:42.261Z,28.50
2023-07-17T14:40:14.304Z,28.60
2023-07-17T14:42:47.068Z,28.90
2023-07-17T14:45:19.337Z,29.00
2023-07-17T14:47:51.571Z,29.00
2023-07-17T14:50:24.771Z,29.00
2023-07-17T14:52:57.953Z,29.20
2023-07-17T14:55:30.258Z,29.30
2023-07-17T14:58:02.388Z,29.40
2023-07-17T15:00:34.638Z,29.60
2023-07-17T15:03:06.889Z,29.80
2023-07-17T15:05:39.020Z,30.00
2023-07-17T15:08:11.105Z,30.20
2023-07-17T15:10:43.218Z,30.30
2023-07-17T15:13:15.658Z,30.00
2023-07-17T15:15:47.917Z,30.00
2023-07-17T15:18:20.012Z,29.90
2023-07-17T15:20:52.372Z,29.70
2023-07-17T15:23:24.924Z,29.70
2023-07-17T15:25:57.071Z,29.60
2023-07-17T15:28:29.226Z,29.50
2023-07-17T15:31:01.491Z,29.50
2023-07-17T15:33:34.857Z,29.40
2023-07-17T15:36:07.511Z,29.40
2023-07-17T15:38:39.743Z,29.40
2023-07-17T15:41:14.309Z,29.50
2023-07-17T15:43:47.306Z,29.70
2023-07-17T15:46:20.525Z,29.70
2023-07-17T15:48:53.287Z,29.70
2023-07-17T15:51:25.537Z,29.70
2023-07-17T15:53:57.761Z,29.60
2023-07-17T15:56:29.937Z,29.40
2023-07-17T15:59:02.427Z,29.40
2023-07-17T16:01:35.668Z,29.10
2023-07-17T16:04:07.908Z,28.90
2023-07-17T16:06:40.048Z,28.50
2023-07-17T16:09:12.735Z,28.20
2023-07-17T16:11:46.728Z,27.80
2023-07-17T16:14:19.242Z,27.60
2023-07-17T16:16:51.746Z,27.40
2023-07-17T16:19:24.287Z,27.10
2023-07-17T16:21:56.429Z,27.10
2023-07-17T16:24:28.591Z,27.20
2023-07-17T16:27:01.237Z,27.40
2023-07-17T16:29:33.948Z,27.50
2023-07-17T16:32:07.166Z,27.70
2023-07-17T16:34:39.466Z,27.80
2023-07-17T16:37:12.005Z,27.80
2023-07-17T16:39:44.149Z,27.90
2023-07-17T16:42:16.529Z,27.90
2023-07-17T16:44:49.256Z,27.90
2023-07-17T16:47:21.569Z,27.90
2023-07-17T16:49:53.605Z,27.80
2023-07-17T16:52:25.693Z,27.80
2023-07-17T16:54:58.072Z,27.80
2023-07-17T16:57:32.705Z,27.80
2023-07-17T17:00:07.145Z,27.70
2023-07-17T17:02:40.013Z,27.60
2023-07-17T17:05:13.511Z,27.40
2023-07-17T17:07:46.158Z,27.30
2023-07-17T17:10:18.355Z,27.10
2023-07-17T17:12:50.563Z,26.90
2023-07-17T17:15:23.154Z,26.70
2023-07-17T17:17:56.138Z,26.50
2023-07-17T17:20:28.535Z,26.50
2023-07-17T17:23:02.304Z,26.50
2023-07-17T17:25:35.065Z,26.40
2023-07-17T17:28:11.682Z,26.40
2023-07-17T17:30:45.320Z,26.30
2023-07-17T17:33:19.447Z,26.30
2023-07-17T17:35:54.778Z,26.20
2023-07-17T17:38:27.150Z,26.10
2023-07-17T17:41:00.250Z,26.00
2023-07-17T17:43:34.237Z,25.90
2023-07-17T17:46:07.065Z,25.90
2023-07-17T17:48:39.615Z,25.80
2023-07-17T17:51:12.077Z,25.70
2023-07-17T17:53:44.341Z,25.60
2023-07-17T17:56:17.359Z,25.50
2023-07-17T17:58:49.685Z,25.40
2023-07-17T18:01:22.036Z,25.30
2023-07-17T18:03:57.113Z,25.20
2023-07-17T18:06:31.311Z,25.10
2023-07-17T18:09:04.490Z,25.10
2023-07-17T18:11:40.041Z,25.00
2023-07-17T18:14:14.057Z,25.00
2023-07-17T18:16:47.285Z,24.90
2023-07-17T18:19:19.740Z,24.90
2023-07-17T18:21:57.546Z,24.80
2023-07-17T18:24:29.841Z,24.80
2023-07-17T18:27:05.341Z,24.70
2023-07-17T18:29:37.679Z,24.60
2023-07-17T18:32:10.138Z,24.60
2023-07-17T18:34:42.679Z,24.50
2023-07-17T18:37:15.390Z,24.50
2023-07-17T18:39:47.950Z,24.50
2023-07-17T18:42:21.049Z,24.40
2023-07-17T18:44:53.399Z,24.40
2023-07-17T18:47:25.879Z,24.30
2023-07-17T18:49:58.419Z,24.20
2023-07-17T18:52:30.791Z,24.20
2023-07-17T18:55:05.541Z,24.10
2023-07-17T18:57:39.747Z,24.10
2023-07-17T19:00:13.348Z,24.00
2023-07-17T19:02:47.108Z,24.00
2023-07-17T19:05:22.025Z,23.90
2023-07-17T19:07:54.616Z,23.80
2023-07-17T19:10:26.735Z,23.80
2023-07-17T19:12:58.825Z,23.70
2023-07-17T19:15:31.069Z,23.60
2023-07-17T19:18:03.390Z,23.60
2023-07-17T19:20:40.822Z,23.50
2023-07-17T19:23:13.207Z,23.40
2023-07-17T19:25:45.605Z,23.30
2023-07-17T19:28:18.003Z,23.20
2023-07-17T19:30:51.088Z,23.10
2023-07-17T19:33:23.826Z,23.10
2023-07-17T19:35:56.289Z,23.00
2023-07-17T19:38:28.434Z,22.90
2023-07-17T19:41:02.915Z,22.90
2023-07-17T19:43:36.060Z,22.80
2023-07-17T19:46:08.595Z,22.70
2023-07-17T19:48:41.553Z,22.60
2023-07-17T19:51:13.825Z,22.50
2023-07-17T19:53:46.950Z,22.50
2023-07-17T19:56:19.187Z,22.40
2023-07-17T19:58:51.332Z,22.40
2023-07-17T20:01:24.091Z,22.30
2023-07-17T20:03:57.867Z,22.30
2023-07-17T20:06:30.115Z,22.20
2023-07-17T20:09:04.097Z,22.10
2023-07-17T20:11:36.433Z,22.10
2023-07-17T20:14:10.646Z,22.00
2023-07-17T20:16:43.436Z,22.00
2023-07-17T20:19:16.894Z,21.90
2023-07-17T20:21:49.586Z,21.80
2023-07-17T20:24:21.712Z,21.80
2023-07-17T20:26:54.648Z,21.70
2023-07-17T20:29:27.835Z,21.60
2023-07-17T20:31:59.990Z,21.50
2023-07-17T20:34:32.673Z,21.40
2023-07-17T20:37:05.253Z,21.30
2023-07-17T20:39:38.155Z,21.30
2023-07-17T20:42:11.729Z,21.20
2023-07-17T20:45:04.723Z,21.10
2023-07-17T20:47:37.825Z,21.00
2023-07-17T20:50:10.200Z,20.90
2023-07-17T20:52:48.617Z,20.90
2023-07-17T20:55:22.250Z,20.90
2023-07-17T20:57:54.519Z,20.70
2023-07-17T21:00:27.795Z,20.70
2023-07-17T21:03:00.573Z,20.60
2023-07-17T21:05:34.624Z,20.50
2023-07-17T21:08:10.888Z,20.50
2023-07-17T21:10:43.121Z,20.40
2023-07-17T21:13:15.700Z,20.30
2023-07-17T21:15:48.334Z,20.20
2023-07-17T21:18:22.436Z,20.20
2023-07-17T21:20:55.278Z,20.10
2023-07-17T21:23:27.742Z,20.00
2023-07-17T21:26:00.064Z,20.00
2023-07-17T21:28:33.120Z,19.90
2023-07-17T21:31:05.343Z,19.80
2023-07-17T21:33:37.490Z,19.80
2023-07-17T21:36:09.504Z,19.80
2023-07-17T21:38:41.816Z,19.70
2023-07-17T21:41:13.896Z,19.60
2023-07-17T21:43:46.102Z,19.60
2023-07-17T21:46:18.777Z,19.50
2023-07-17T21:48:51.199Z,19.50
2023-07-17T21:51:23.738Z,19.50
2023-07-17T21:53:55.885Z,19.40
2023-07-17T21:56:28.418Z,19.40
2023-07-17T21:59:00.469Z,19.40
2023-07-17T22:01:32.854Z,19.30
2023-07-17T22:04:05.889Z,19.30
2023-07-17T22:06:38.124Z,19.20
2023-07-17T22:09:10.691Z,19.20
2023-07-17T22:11:43.563Z,19.10
2023-07-17T22:14:15.624Z,19.10
2023-07-17T22:16:47.945Z,19.00
2023-07-17T22:19:20.219Z,19.00
2023-07-17T22:21:52.353Z,18.90
2023-07-17T22:24:24.492Z,18.90
2023-07-17T22:26:56.588Z,18.90
2023-07-17T22:29:29.475Z,18.80
2023-07-17T22:32:02.290Z,18.80
2023-07-17T22:34:35.236Z,18.70
2023-07-17T22:37:07.579Z,18.70
2023-07-17T22:39:39.857Z,18.60
2023-07-17T22:42:11.926Z,18.50
2023-07-17T22:44:45.350Z,18.50
2023-07-17T22:47:24.217Z,18.50
2023-07-17T22:49:58.184Z,18.40
2023-07-17T22:52:31.625Z,18.40
2023-07-17T22:55:04.028Z,18.30
2023-07-17T22:57:39.587Z,18.30
2023-07-17T23:00:12.579Z,18.20
2023-07-17T23:02:45.524Z,18.20
2023-07-17T23:05:17.725Z,18.30
2023-07-17T23:07:51.257Z,18.30
2023-07-17T23:10:26.657Z,18.30
2023-07-17T23:12:58.855Z,18.30
2023-07-17T23:15:31.441Z,18.30
2023-07-17T23:18:04.208Z,18.20
2023-07-17T23:20:36.522Z,18.20
2023-07-17T23:23:09.494Z,18.10
2023-07-17T23:25:45.648Z,18.10
2023-07-17T23:28:17.733Z,18.00
2023-07-17T23:30:49.978Z,18.00
2023-07-17T23:33:22.396Z,17.90
2023-07-17T23:35:54.942Z,17.90
2023-07-17T23:38:28.295Z,17.80
2023-07-17T23:41:01.335Z,17.80
2023-07-17T23:43:34.901Z,17.70
2023-07-17T23:46:07.113Z,17.60
2023-07-17T23:48:39.890Z,17.60
2023-07-17T23:51:11.995Z,17.60
2023-07-17T23:53:44.005Z,17.50
2023-07-17T23:56:16.172Z,17.50
2023-07-17T23:58:49.063Z,17.50
